Terminal Aerodrome Forecast
Issued by NWS Columbia, SC

Home | Current Version | Previous Version | Text Only | Print | Product List | Glossary On
Versions: 1 2 3 4 5 6 7 8 9 10 11 12 13 14 15 16 17 18 19 20 21 22 23 24 25 26 27 28
118
FTUS42 KCAE 282056 AAA
TAFCAE
TAF AMD
KCAE 282056Z 2821/2918 21010KT P6SM SCT060
     FM290000 17008KT P6SM SCT250
     FM290800 15004KT P6SM SCT025
      TEMPO 2911/2914 BKN010
     FM291500 19008KT P6SM SCT035=

USA.gov is the U.S. government's official web portal to all federal, state and local government web resources and services.